Station Historical Data
Daily Summary for November 11, 2017 Units:  Metric    English   Both
« Previous Day
Next Day »
Daily Weekly Monthly Yearly Custom
  High: Low: Average:
Temperature: 12.1 °C 4.7 °C 8.1 °C
Dew Point: 4.7 °C 1.3 °C 3 °C
Humidity: 90% 59% 70%
Wind Speed: 11.1km/h 0km/h 2.7km/h
Wind Gust: 11.1km/h - -
Wind- - West
Pressure: 1030 hPa 1024.9 hPa -
Precipitation: 0 mm    
Historical Graphs
 
 
Tabular Data for November 11, 2017
Time Temperature Dew Point Pressure Wind Wind Speed Wind Gust Humidity Rainfall Rate (Hourly) Conditions
00:00 4.8 °C 3.1 °C 1024.9 hPa Calm     89% 0 mm CLR
00:05 4.8 °C 3.1 °C 1025.3 hPa Calm     89% 0 mm CLR
00:11 4.7 °C 3.1 °C 1025.3 hPa Calm     89% 0 mm CLR
00:16 4.8 °C 3.3 °C 1025.3 hPa Calm     90% 0 mm CLR
00:21 4.9 °C 3.4 °C 1025.3 hPa Calm     90% 0 mm CLR
00:26 4.9 °C 3.4 °C 1025.3 hPa Calm     90% 0 mm CLR
00:31 5 °C 3.5 °C 1025.3 hPa Calm     90% 0 mm CLR
00:36 5.1 °C 3.6 °C 1025.3 hPa Calm     90% 0 mm CLR
00:41 5.2 °C 3.7 °C 1025.3 hPa Calm     90% 0 mm CLR
00:46 5.2 °C 3.7 °C 1025.3 hPa Calm     90% 0 mm CLR
00:51 5.3 °C 3.8 °C 1025.3 hPa Calm     90% 0 mm CLR
00:56 5.3 °C 3.8 °C 1025.3 hPa Calm     90% 0 mm CLR
01:01 5.3 °C 3.7 °C 1025.3 hPa Calm     89% 0 mm CLR
01:06 5.5 °C 4 °C 1025.3 hPa Calm     90% 0 mm CLR
01:11 5.6 °C 4.1 °C 1025.3 hPa Calm     90% 0 mm CLR
01:16 6 °C 4.3 °C 1025.3 hPa WNW 1.9 km/h 1.9 km/h 89% 0 mm CLR
01:21 6.4 °C 4.4 °C 1025.3 hPa West 1.9 km/h   87% 0 mm CLR
01:26 6.7 °C 4.5 °C 1025.3 hPa West 1.9 km/h   86% 0 mm CLR
01:31 6.8 °C 4.4 °C 1025.3 hPa Calm     85% 0 mm CLR
01:36 6.8 °C 4.5 °C 1025.3 hPa West 1.9 km/h 1.9 km/h 85% 0 mm CLR
01:42 6.9 °C 4.4 °C 1025.3 hPa Calm   0.3 km/h 84% 0 mm CLR
01:47 7.1 °C 4.6 °C 1025.3 hPa WNW 1.9 km/h 1.9 km/h 84% 0 mm CLR
01:52 7.2 °C 4.5 °C 1025.3 hPa West 5.6 km/h 5.6 km/h 83% 0 mm CLR
01:57 7.3 °C 4.6 °C 1025.3 hPa West 1.9 km/h 1.9 km/h 83% 0 mm CLR
02:02 7.3 °C 4.4 °C 1025.6 hPa West 1.9 km/h   82% 0 mm CLR
02:07 7.4 °C 4.5 °C 1025.6 hPa West 3.2 km/h 3.2 km/h 82% 0 mm CLR
02:12 7.6 °C 4.5 °C 1025.6 hPa West 3.7 km/h 3.7 km/h 81% 0 mm CLR
02:17 7.6 °C 4.4 °C 1025.6 hPa Calm     80% 0 mm CLR
02:22 7.7 °C 4.5 °C 1025.6 hPa West 3.7 km/h 3.7 km/h 80% 0 mm CLR
02:27 7.8 °C 4.4 °C 1025.6 hPa West 3.7 km/h 3.7 km/h 79% 0 mm CLR
02:32 7.8 °C 4.6 °C 1025.6 hPa West 1.9 km/h 1.9 km/h 80% 0 mm CLR
02:37 7.8 °C 4.6 °C 1025.6 hPa West 1.9 km/h 1.9 km/h 80% 0 mm CLR
02:42 7.9 °C 4.4 °C 1025.6 hPa West 1.9 km/h 1.9 km/h 79% 0 mm CLR
02:47 7.9 °C 4.4 °C 1025.6 hPa WNW 5.6 km/h 5.6 km/h 79% 0 mm CLR
02:52 7.9 °C 4.4 °C 1025.6 hPa SW 8.2 km/h 8.2 km/h 79% 0 mm CLR
02:57 7.9 °C 4.3 °C 1025.6 hPa WNW 1.9 km/h 1.9 km/h 78% 0 mm CLR
03:02 7.9 °C 4.1 °C 1026.3 hPa West 7.4 km/h 7.4 km/h 77% 0 mm CLR
03:07 7.8 °C 4.1 °C 1026.3 hPa WNW 1.9 km/h 1.9 km/h 77% 0 mm CLR
03:12 7.8 °C 3.8 °C 1026.3 hPa West 1.9 km/h 1.9 km/h 76% 0 mm CLR
03:17 7.8 °C 3.8 °C 1026.3 hPa WSW 3.7 km/h 3.7 km/h 76% 0 mm CLR
03:22 7.7 °C 3.6 °C 1026.3 hPa WNW 5.6 km/h 5.6 km/h 75% 0 mm CLR
03:27 7.7 °C 3.6 °C 1026.3 hPa West 1.9 km/h 1.9 km/h 75% 0 mm CLR
03:32 7.6 °C 3.7 °C 1026.3 hPa West 3.7 km/h 3.7 km/h 76% 0 mm CLR
03:37 7.6 °C 3.4 °C 1026.3 hPa WSW 3.2 km/h 3.2 km/h 75% 0 mm CLR
03:43 7.6 °C 3.3 °C 1026.3 hPa NW 5.6 km/h 5.6 km/h 74% 0 mm CLR
03:47 7.6 °C 3.2 °C 1026.3 hPa WNW 5.6 km/h   74% 0 mm CLR
03:53 7.4 °C 2.9 °C 1026.3 hPa WNW 7.4 km/h 7.4 km/h 73% 0 mm CLR
03:58 7.4 °C 2.9 °C 1026.3 hPa West 1.9 km/h 1.9 km/h 73% 0 mm CLR
04:03 7.3 °C 2.8 °C 1027 hPa WSW 5.6 km/h 5.6 km/h 73% 0 mm CLR
04:05 7.3 °C 2.8 °C 1027 hPa WNW 1.9 km/h 1.9 km/h 73% 0 mm CLR
04:10 7.2 °C 2.7 °C 1027 hPa West 5.6 km/h 5.6 km/h 73% 0 mm CLR
04:16 7.2 °C 2.7 °C 1027 hPa West 5.6 km/h 5.6 km/h 73% 0 mm CLR
04:21 7.1 °C 2.6 °C 1027 hPa WNW 1.6 km/h 1.6 km/h 73% 0 mm CLR
04:26 7.1 °C 2.6 °C 1027 hPa WSW 3.7 km/h 3.7 km/h 73% 0 mm CLR
04:31 7 °C 2.5 °C 1027 hPa WNW 1.9 km/h 1.9 km/h 73% 0 mm CLR
04:36 7 °C 2.3 °C 1027 hPa NW 1.9 km/h 1.9 km/h 72% 0 mm CLR
04:40 6.9 °C 2.4 °C 1027 hPa WNW 1.9 km/h 1.9 km/h 73% 0 mm CLR
04:45 6.8 °C 2.3 °C 1027 hPa WNW 7.4 km/h 7.4 km/h 73% 0 mm CLR
04:50 6.8 °C 2.5 °C 1027 hPa West 5.6 km/h 5.6 km/h 74% 0 mm CLR
04:55 6.7 °C 2.4 °C 1027 hPa West 1.9 km/h 1.9 km/h 74% 0 mm CLR
05:00 6.7 °C 2.3 °C 1027 hPa WNW 8.2 km/h 8.2 km/h 74% 0 mm CLR
05:06 6.6 °C 2.3 °C 1027.7 hPa NW 3.7 km/h   74% 0 mm CLR
05:11 6.6 °C 2.2 °C 1027.7 hPa West 5 km/h 5 km/h 74% 0 mm CLR
05:16 6.5 °C 2.2 °C 1027.7 hPa West 1.9 km/h 1.9 km/h 74% 0 mm CLR
05:21 6.4 °C 1.9 °C 1027.7 hPa SW 7.4 km/h 7.4 km/h 73% 0 mm CLR
05:26 6.3 °C 2.1 °C 1027.7 hPa WNW 1.9 km/h 1.9 km/h 74% 0 mm CLR
05:31 6.3 °C 2 °C 1027.7 hPa West 3.7 km/h 3.7 km/h 74% 0 mm CLR
05:36 6.2 °C 1.9 °C 1027.7 hPa West 7.4 km/h 7.4 km/h 74% 0 mm CLR
05:41 6.2 °C 1.9 °C 1027.7 hPa WNW 5.6 km/h 5.6 km/h 74% 0 mm CLR
05:46 6.1 °C 1.8 °C 1027.7 hPa WNW 1.9 km/h 1.9 km/h 74% 0 mm CLR
05:51 6 °C 1.7 °C 1027.7 hPa WSW 1.9 km/h 1.9 km/h 74% 0 mm CLR
05:56 5.9 °C 1.8 °C 1027.7 hPa West 1.9 km/h   75% 0 mm CLR
06:01 5.8 °C 1.7 °C 1028 hPa WNW 1.9 km/h 1.9 km/h 75% 0 mm CLR
06:06 5.8 °C 1.7 °C 1028 hPa West 1.9 km/h   75% 0 mm CLR
06:11 5.8 °C 1.7 °C 1028 hPa NW 5.6 km/h 5.6 km/h 75% 0 mm CLR
06:16 5.7 °C 1.8 °C 1028 hPa WNW 1.9 km/h 1.9 km/h 76% 0 mm CLR
06:21 5.6 °C 1.7 °C 1028 hPa West 5.6 km/h 5.6 km/h 76% 0 mm CLR
06:26 5.6 °C 1.7 °C 1028 hPa WNW 1.9 km/h 1.9 km/h 76% 0 mm CLR
06:31 5.5 °C 1.6 °C 1028 hPa West 3.7 km/h 3.7 km/h 76% 0 mm CLR
06:36 5.4 °C 1.7 °C 1028 hPa WNW 1.9 km/h 4.2 km/h 77% 0 mm CLR
06:41 5.4 °C 1.5 °C 1028 hPa WNW 5.6 km/h 5.6 km/h 76% 0 mm CLR
06:46 5.3 °C 1.6 °C 1028 hPa West 1.9 km/h 1.9 km/h 77% 0 mm CLR
06:52 5.3 °C 1.6 °C 1028 hPa West 1.9 km/h 1.9 km/h 77% 0 mm CLR
06:57 5.2 °C 1.5 °C 1028 hPa WNW 1.9 km/h 1.9 km/h 77% 0 mm CLR
07:02 5.2 °C 1.4 °C 1028.7 hPa WNW 1.9 km/h   77% 0 mm BKN
07:07 5.1 °C 1.6 °C 1028.7 hPa WNW 1.6 km/h 1.6 km/h 78% 0 mm BKN
07:12 5.1 °C 1.6 °C 1028.7 hPa West 1.9 km/h 1.9 km/h 78% 0 mm BKN
07:17 5 °C 1.5 °C 1028.7 hPa WNW 8.2 km/h 8.2 km/h 78% 0 mm BKN
07:22 5.1 °C 1.6 °C 1028.7 hPa WSW 3.7 km/h 3.7 km/h 78% 0 mm BKN
07:27 5 °C 1.5 °C 1028.7 hPa Calm     78% 0 mm BKN
07:32 4.9 °C 1.4 °C 1028.7 hPa Calm     78% 0 mm BKN
07:37 5 °C 1.3 °C 1028.7 hPa WNW 3.7 km/h 3.7 km/h 77% 0 mm BKN
07:42 5 °C 1.3 °C 1028.7 hPa WNW 1.9 km/h 1.9 km/h 77% 0 mm BKN
07:47 5 °C 1.3 °C 1028.7 hPa WNW 3.7 km/h   77% 0 mm BKN
07:52 5.1 °C 1.3 °C 1028.7 hPa WNW 1.9 km/h 1.9 km/h 77% 0 mm BKN
07:57 5.1 °C 1.4 °C 1028.7 hPa West 1.9 km/h 1.9 km/h 77% 0 mm BKN
08:02 5.2 °C 1.3 °C 1029 hPa WNW 5.6 km/h 5.6 km/h 76% 0 mm BKN
08:07 5.2 °C 1.5 °C 1029 hPa WNW 1.9 km/h 1.9 km/h 77% 0 mm BKN
08:12 5.3 °C 1.4 °C 1029 hPa West 3.7 km/h 3.7 km/h 76% 0 mm BKN
08:17 5.3 °C 1.4 °C 1029 hPa West 3.7 km/h 3.7 km/h 76% 0 mm BKN
08:22 5.4 °C 1.4 °C 1029 hPa WNW 3.7 km/h 3.7 km/h 75% 0 mm BKN
08:27 5.6 °C 1.4 °C 1029 hPa WNW 9.3 km/h   75% 0 mm BKN
08:32 5.6 °C 1.4 °C 1029 hPa West 3.7 km/h 3.7 km/h 75% 0 mm BKN
08:37 5.6 °C 1.3 °C 1029 hPa WNW 5.6 km/h 5.6 km/h 74% 0 mm BKN
08:42 5.7 °C 1.4 °C 1029 hPa NE 3.2 km/h 3.2 km/h 74% 0 mm BKN
08:48 5.9 °C 1.6 °C 1029 hPa West 1.9 km/h 1.9 km/h 74% 0 mm BKN
08:53 6 °C 1.5 °C 1029 hPa West 6.6 km/h 6.6 km/h 73% 0 mm BKN
08:58 6.1 °C 1.6 °C 1029 hPa WNW 1.9 km/h 1.9 km/h 73% 0 mm BKN
09:03 6.3 °C 1.6 °C 1030 hPa SSW 5.6 km/h 5.6 km/h 72% 0 mm BKN
09:08 6.3 °C 1.4 °C 1030 hPa West 11.1 km/h 11.1 km/h 71% 0 mm BKN
09:13 6.4 °C 1.7 °C 1030 hPa South 3.7 km/h 3.7 km/h 72% 0 mm BKN
09:18 6.4 °C 1.8 °C 1030 hPa SSE 5.6 km/h 5.6 km/h 72% 0 mm BKN
09:23 6.7 °C 2 °C 1030 hPa WNW 3.7 km/h 3.7 km/h 72% 0 mm BKN
09:28 6.7 °C 1.8 °C 1030 hPa WNW 3.7 km/h 3.7 km/h 71% 0 mm BKN
09:33 6.8 °C 1.9 °C 1030 hPa West 1.9 km/h 1.9 km/h 71% 0 mm BKN
09:38 6.8 °C 1.9 °C 1030 hPa WNW 1.9 km/h 1.9 km/h 71% 0 mm BKN
09:43 7.2 °C 2.1 °C 1030 hPa WSW 3.7 km/h 3.7 km/h 70% 0 mm BKN
09:48 7.4 °C 2.1 °C 1030 hPa WNW 7.4 km/h 7.4 km/h 69% 0 mm BKN
09:53 7.4 °C 1.9 °C 1030 hPa WNW 5.6 km/h 5.6 km/h 68% 0 mm BKN
09:58 7.7 °C 2.1 °C 1030 hPa West 7.4 km/h 7.4 km/h 68% 0 mm BKN
10:03 7.9 °C 2.2 °C 1030 hPa West 7.4 km/h 7.4 km/h 67% 0 mm BKN
10:08 7.8 °C 2.2 °C 1030 hPa SSE 3.2 km/h 3.2 km/h 68% 0 mm BKN
10:14 7.7 °C 1.9 °C 1030 hPa NW 7.4 km/h 7.4 km/h 67% 0 mm BKN
10:19 7.7 °C 1.9 °C 1030 hPa WNW 7.4 km/h 7.4 km/h 67% 0 mm BKN
10:24 8.1 °C 2.6 °C 1030 hPa NW 3.7 km/h 3.7 km/h 68% 0 mm BKN
10:29 8.4 °C 2.7 °C 1030 hPa West 1.9 km/h   67% 0 mm BKN
10:34 8.7 °C 2.7 °C 1030 hPa South 7.4 km/h 7.4 km/h 66% 0 mm BKN
10:39 8.8 °C 2.6 °C 1030 hPa West 5.6 km/h 5.6 km/h 65% 0 mm BKN
10:44 8.6 °C 2.4 °C 1030 hPa SE 3.7 km/h 3.7 km/h 65% 0 mm BKN
10:49 8.7 °C 2.7 °C 1030 hPa North 1.9 km/h 1.9 km/h 66% 0 mm BKN
10:54 8.9 °C 3.3 °C 1030 hPa WNW 1.9 km/h 1.9 km/h 68% 0 mm BKN
10:59 9.2 °C 2.9 °C 1030 hPa WNW 1.9 km/h 1.9 km/h 65% 0 mm BKN
11:04 9.1 °C 2.8 °C 1029.3 hPa NW 3.7 km/h 3.7 km/h 65% 0 mm BKN
11:09 9.2 °C 3.2 °C 1029.3 hPa East 1.9 km/h 1.9 km/h 66% 0 mm BKN
11:14 9.5 °C 3.4 °C 1029.3 hPa SE 3.7 km/h 3.7 km/h 66% 0 mm BKN
11:19 9.4 °C 2.9 °C 1029.3 hPa WNW 3.7 km/h 3.7 km/h 64% 0 mm BKN
11:24 9.4 °C 3.4 °C 1029.3 hPa NW 1.9 km/h 1.9 km/h 66% 0 mm BKN
11:29 9.7 °C 3.8 °C 1029.3 hPa West 5 km/h 5 km/h 67% 0 mm BKN
11:34 9.7 °C 3.4 °C 1029.3 hPa WSW 3.7 km/h 3.7 km/h 65% 0 mm BKN
11:39 9.8 °C 3.6 °C 1029.3 hPa WNW 1.6 km/h   65% 0 mm BKN
11:44 9.9 °C 4.1 °C 1029.3 hPa WNW 3.7 km/h   67% 0 mm BKN
11:49 10.2 °C 3.4 °C 1029.3 hPa WNW 5.6 km/h 5.6 km/h 63% 0 mm BKN
11:54 9.9 °C 3.6 °C 1029.3 hPa NW 3.7 km/h 3.7 km/h 65% 0 mm BKN
11:59 10.1 °C 3.8 °C 1029.3 hPa West 1.9 km/h   65% 0 mm BKN
12:05 10.3 °C 3.8 °C 1028.7 hPa WNW 3.7 km/h 3.7 km/h 64% 0 mm BKN
12:10 10.3 °C 4 °C 1028.7 hPa WNW 3.7 km/h 3.7 km/h 65% 0 mm BKN
12:15 10.3 °C 3.8 °C 1028.7 hPa Calm   1.6 km/h 64% 0 mm BKN
12:20 10.6 °C 4.2 °C 1028.7 hPa Calm   3.2 km/h 65% 0 mm BKN
12:25 10.7 °C 4.1 °C 1028.7 hPa WNW 1.6 km/h 3.2 km/h 64% 0 mm BKN
12:30 10.7 °C 3.7 °C 1028.7 hPa WNW 1.6 km/h 8 km/h 62% 0 mm BKN
12:35 10.8 °C 4.2 °C 1028.7 hPa Calm   4.8 km/h 64% 0 mm BKN
12:40 11.2 °C 4.6 °C 1028.7 hPa Calm   3.2 km/h 64% 0 mm BKN
12:45 11.4 °C 4.3 °C 1028.7 hPa WNW 1.6 km/h 8 km/h 62% 0 mm BKN
12:50 11.5 °C 4.4 °C 1028.7 hPa WNW 1.6 km/h 4.8 km/h 62% 0 mm BKN
12:55 11.6 °C 4.3 °C 1028.7 hPa Calm   4.8 km/h 61% 0 mm BKN
13:00 11.8 °C 4.7 °C 1028.7 hPa WNW 1.6 km/h 4.8 km/h 62% 0 mm BKN
13:05 12.1 °C 4.3 °C 1027.7 hPa WNW 3.2 km/h 8 km/h 59% 0 mm BKN
13:10 12 °C 4.2 °C 1027.7 hPa WNW 1.6 km/h 8 km/h 59% 0 mm BKN
13:15 12.1 °C 4.3 °C 1027.7 hPa WNW 3.2 km/h 8 km/h 59% 0 mm BKN
13:20 11.9 °C 4.4 °C 1027.7 hPa Calm   4.8 km/h 60% 0 mm BKN
13:25 12 °C 4.7 °C 1027.7 hPa WNW 1.6 km/h 9.7 km/h 61% 0 mm BKN
13:30 11.8 °C 4.3 °C 1027.7 hPa Calm   4.8 km/h 60% 0 mm BKN
13:35 11.7 °C 4.2 °C 1027.3 hPa WNW 3.7 km/h 3.7 km/h 60% 0 mm OVC
13:40 11.6 °C 4.6 °C 1027.3 hPa WNW 1.9 km/h 1.9 km/h 62% 0 mm OVC
13:45 11.6 °C 4.6 °C 1027.3 hPa West 3.7 km/h 3.7 km/h 62% 0 mm OVC
13:50 11.4 °C 4.2 °C 1027.3 hPa NW 3.2 km/h 3.2 km/h 61% 0 mm OVC
13:55 11.3 °C 4.3 °C 1027.3 hPa Calm     62% 0 mm OVC
14:00 11.2 °C 4.2 °C 1027.3 hPa West 3.7 km/h 3.7 km/h 62% 0 mm OVC
14:05 11.2 °C 4.2 °C 1027 hPa WSW 7.4 km/h 7.4 km/h 62% 0 mm OVC
14:10 11.1 °C 3.9 °C 1027 hPa NW 5.6 km/h 5.6 km/h 61% 0 mm OVC
14:15 11 °C 4 °C 1027 hPa WNW 1.6 km/h 1.6 km/h 62% 0 mm OVC
14:20 11 °C 4.2 °C 1027 hPa West 3.7 km/h 3.7 km/h 63% 0 mm OVC
14:21 11 °C 4.2 °C 1027 hPa WNW 1.9 km/h 1.9 km/h 63% 0 mm OVC
14:26 11.1 °C 4.3 °C 1027 hPa West 3.2 km/h 3.2 km/h 63% 0 mm OVC
14:31 11.1 °C 4.6 °C 1027 hPa West 1.9 km/h 1.9 km/h 64% 0 mm OVC
14:36 11.2 °C 4.2 °C 1027 hPa West 5.6 km/h 5.6 km/h 62% 0 mm OVC
14:41 11.2 °C 3.9 °C 1027 hPa WNW 1.9 km/h 1.9 km/h 61% 0 mm OVC
14:46 11.1 °C 4.3 °C 1027 hPa West 1.9 km/h 1.9 km/h 63% 0 mm OVC
14:51 11 °C 4.2 °C 1027 hPa WNW 1.9 km/h 1.9 km/h 63% 0 mm OVC
14:56 11 °C 4.4 °C 1027 hPa Calm   0.2 km/h 64% 0 mm OVC
15:01 11.1 °C 4.3 °C 1026.6 hPa West 3.7 km/h 3.7 km/h 63% 0 mm OVC
15:06 11.1 °C 4.7 °C 1026.6 hPa Calm     65% 0 mm OVC
15:12 11.1 °C 4.3 °C 1026.6 hPa WNW 3.7 km/h 3.7 km/h 63% 0 mm OVC
15:17 11.1 °C 4.5 °C 1026.6 hPa NW 3.2 km/h 3.2 km/h 64% 0 mm OVC
15:22 10.9 °C 4.4 °C 1026.6 hPa Calm     64% 0 mm OVC
15:27 10.9 °C 4.4 °C 1026.6 hPa NW 1.9 km/h 1.9 km/h 64% 0 mm OVC
15:30 10.9 °C 4.3 °C 1026.6 hPa WNW 1.9 km/h 1.9 km/h 64% 0 mm OVC
15:35 10.8 °C 4.2 °C 1026.6 hPa NW 1.9 km/h 1.9 km/h 64% 0 mm OVC
15:40 10.7 °C 4.2 °C 1026.6 hPa WNW 1.9 km/h 1.9 km/h 64% 0 mm OVC
15:45 10.7 °C 4.1 °C 1026.6 hPa Calm     64% 0 mm OVC
15:48 10.6 °C 4.1 °C 1026.6 hPa WNW 1.9 km/h 1.9 km/h 64% 0 mm OVC
15:53 10.6 °C 4 °C 1026.6 hPa West 3.7 km/h 3.7 km/h 64% 0 mm OVC
15:58 10.5 °C 3.7 °C 1026.6 hPa WSW 6.6 km/h 6.6 km/h 63% 0 mm OVC
16:03 10.4 °C 4.1 °C 1026.6 hPa West 1.9 km/h 1.9 km/h 65% 0 mm OVC
16:08 10.3 °C 3.6 °C 1026.6 hPa West 1.9 km/h 1.9 km/h 63% 0 mm OVC
16:13 10.3 °C 3.6 °C 1026.6 hPa WNW 7.4 km/h 7.4 km/h 63% 0 mm OVC
16:18 10.2 °C 3.7 °C 1026.6 hPa WNW 1.9 km/h 1.9 km/h 64% 0 mm OVC
16:23 10.2 °C 3.9 °C 1026.6 hPa Calm     65% 0 mm OVC
16:28 10.2 °C 3.4 °C 1026.6 hPa SW 1.9 km/h   63% 0 mm OVC
16:33 10.1 °C 3.4 °C 1026.6 hPa West 1.9 km/h 1.9 km/h 63% 0 mm OVC
16:39 10.1 °C 3.6 °C 1026.6 hPa West 1.9 km/h 1.9 km/h 64% 0 mm OVC
16:44 10.1 °C 3.6 °C 1026.6 hPa WNW 1.9 km/h   64% 0 mm OVC
16:49 10 °C 3.5 °C 1026.6 hPa West 3.7 km/h   64% 0 mm OVC
16:54 9.9 °C 3.7 °C 1026.6 hPa West 7.4 km/h   65% 0 mm OVC
16:59 9.9 °C 3.7 °C 1026.6 hPa WNW 1.9 km/h   65% 0 mm OVC
17:00 9.9 °C 3.7 °C 1026.6 hPa Calm     65% 0 mm OVC
17:05 9.9 °C 3.6 °C 1026.6 hPa West 1.9 km/h 1.9 km/h 65% 0 mm OVC
17:10 9.8 °C 3.8 °C 1026.6 hPa SSW 1.9 km/h 1.9 km/h 66% 0 mm OVC
17:15 9.8 °C 3.3 °C 1026.6 hPa WNW 1.9 km/h   64% 0 mm OVC
17:20 9.7 °C 3.4 °C 1026.6 hPa West 1.9 km/h   65% 0 mm OVC
17:25 9.7 °C 3.4 °C 1026.6 hPa West 1.9 km/h   65% 0 mm OVC
17:30 9.6 °C 3.3 °C 1026.6 hPa West 1.9 km/h 1.9 km/h 65% 0 mm OVC
17:35 9.6 °C 3.3 °C 1026.6 hPa West 1.9 km/h   65% 0 mm OVC
17:45 9.4 °C 3.3 °C 1026.6 hPa Calm     66% 0 mm OVC
17:50 9.4 °C 3.3 °C 1026.6 hPa Calm     66% 0 mm OVC
17:55 9.3 °C 3.2 °C 1026.6 hPa West 1.9 km/h 1.9 km/h 66% 0 mm OVC
18:00 9.3 °C 3.2 °C 1026.6 hPa WNW 1.9 km/h 1.9 km/h 66% 0 mm OVC
18:06 9.2 °C 3.2 °C 1027 hPa Calm   0.3 km/h 66% 0 mm OVC
18:11 9.2 °C 3.2 °C 1027 hPa West 1.9 km/h 1.9 km/h 66% 0 mm OVC
18:16 9.2 °C 3.3 °C 1027 hPa WNW 1.9 km/h 1.9 km/h 67% 0 mm OVC
18:21 9.1 °C 3.1 °C 1027 hPa Calm     66% 0 mm OVC
18:26 9.1 °C 3.1 °C 1027 hPa WNW 3.2 km/h 3.2 km/h 66% 0 mm OVC
18:31 9 °C 3 °C 1027 hPa WNW 3.2 km/h 3.2 km/h 66% 0 mm OVC
18:36 8.9 °C 2.9 °C 1027 hPa West 1.9 km/h 1.9 km/h 66% 0 mm OVC
18:41 8.9 °C 2.9 °C 1027 hPa Calm     66% 0 mm OVC
18:46 8.9 °C 2.7 °C 1027 hPa West 1.9 km/h 1.9 km/h 65% 0 mm OVC
18:51 8.8 °C 2.8 °C 1027 hPa West 3.2 km/h 3.2 km/h 66% 0 mm OVC
18:56 8.8 °C 2.8 °C 1027 hPa WNW 1.9 km/h   66% 0 mm OVC
19:01 8.8 °C 2.8 °C 1027.3 hPa WNW 3.7 km/h 3.7 km/h 66% 0 mm OVC
19:06 8.7 °C 2.9 °C 1027.3 hPa West 1.6 km/h 1.6 km/h 67% 0 mm OVC
19:11 8.7 °C 2.9 °C 1027.3 hPa West 1.9 km/h 1.9 km/h 67% 0 mm OVC
19:16 8.7 °C 2.9 °C 1027.3 hPa Calm     67% 0 mm OVC
19:21 8.7 °C 2.9 °C 1027.3 hPa WNW 1.9 km/h 1.9 km/h 67% 0 mm OVC
19:26 8.6 °C 2.8 °C 1027.3 hPa Calm     67% 0 mm OVC
19:31 8.6 °C 2.8 °C 1027.3 hPa Calm   0.5 km/h 67% 0 mm OVC
19:37 8.6 °C 2.8 °C 1027.3 hPa WNW 1.9 km/h   67% 0 mm OVC
19:42 8.6 °C 2.8 °C 1027.3 hPa West 5.6 km/h   67% 0 mm OVC
19:47 8.5 °C 2.5 °C 1027.3 hPa West 5.6 km/h 5.6 km/h 66% 0 mm OVC
19:52 8.5 °C 2.5 °C 1027.3 hPa West 3.7 km/h 3.7 km/h 66% 0 mm OVC
19:57 8.4 °C 2.7 °C 1027.3 hPa WSW 1.9 km/h 1.9 km/h 67% 0 mm OVC
20:02 8.4 °C 2.7 °C 1028 hPa West 1.6 km/h 1.6 km/h 67% 0 mm OVC
20:07 8.4 °C 2.6 °C 1028 hPa WNW 3.7 km/h 3.7 km/h 67% 0 mm OVC
20:12 8.4 °C 2.8 °C 1028 hPa West 1.9 km/h 1.9 km/h 68% 0 mm OVC
20:17 8.3 °C 2.6 °C 1028 hPa West 1.9 km/h 1.9 km/h 67% 0 mm OVC
20:22 8.3 °C 2.8 °C 1028 hPa West 1.9 km/h 1.9 km/h 68% 0 mm OVC
20:27 8.3 °C 2.8 °C 1028 hPa WNW 1.9 km/h 1.9 km/h 68% 0 mm OVC
20:32 8.3 °C 2.8 °C 1028 hPa West 1.9 km/h 1.9 km/h 68% 0 mm OVC
20:37 8.3 °C 2.9 °C 1028 hPa NW 1.9 km/h 1.9 km/h 69% 0 mm OVC
20:43 8.3 °C 2.5 °C 1028 hPa WNW 3.7 km/h 3.7 km/h 67% 0 mm OVC
20:48 8.2 °C 2.4 °C 1028 hPa WNW 1.9 km/h 1.9 km/h 67% 0 mm OVC
20:53 8.2 °C 2.2 °C 1028 hPa WNW 5.6 km/h 5.6 km/h 66% 0 mm OVC
20:58 8.2 °C 2.2 °C 1028 hPa WNW 1.9 km/h 1.9 km/h 66% 0 mm OVC
21:03 8.1 °C 2.1 °C 1028.3 hPa Calm     66% 0 mm OVC
21:08 8.1 °C 2.3 °C 1028.3 hPa WNW 3.2 km/h 3.2 km/h 67% 0 mm OVC
21:13 8.1 °C 2.3 °C 1028.3 hPa West 3.2 km/h 3.2 km/h 67% 0 mm OVC
21:18 8.1 °C 2.5 °C 1028.3 hPa Calm     68% 0 mm OVC
21:23 8 °C 2.1 °C 1028.3 hPa WNW 5.6 km/h 5.6 km/h 66% 0 mm OVC
21:28 8 °C 2.4 °C 1028.3 hPa West 3.2 km/h   68% 0 mm OVC
21:33 7.9 °C 2 °C 1028.3 hPa NW 3.7 km/h 3.7 km/h 66% 0 mm OVC
21:38 7.9 °C 2.2 °C 1028.3 hPa West 1.9 km/h 1.9 km/h 67% 0 mm OVC
21:43 7.9 °C 2 °C 1028.3 hPa Calm     66% 0 mm OVC
21:48 7.9 °C 1.9 °C 1028.3 hPa West 1.9 km/h 1.9 km/h 66% 0 mm OVC
21:53 7.9 °C 1.9 °C 1028.3 hPa West 1.9 km/h 1.9 km/h 66% 0 mm OVC
21:56 7.9 °C 1.9 °C 1028.3 hPa NW 1.9 km/h 1.9 km/h 66% 0 mm OVC
22:02 7.8 °C 1.9 °C 1029 hPa West 1.9 km/h 1.9 km/h 66% 0 mm OVC
22:07 7.8 °C 1.9 °C 1029 hPa WNW 1.9 km/h 1.9 km/h 66% 0 mm OVC
22:13 7.8 °C 1.9 °C 1029 hPa West 7.4 km/h 7.4 km/h 66% 0 mm OVC
22:18 7.8 °C 1.8 °C 1029 hPa West 1.9 km/h 1.9 km/h 66% 0 mm OVC
22:22 7.8 °C 2.2 °C 1029 hPa West 1.9 km/h 1.9 km/h 68% 0 mm OVC
22:23 7.8 °C 2.1 °C 1029 hPa WNW 3.2 km/h 3.2 km/h 67% 0 mm OVC
22:25 7.8 °C 2.1 °C 1029 hPa Calm   3.2 km/h 67% 0 mm OVC
22:30 7.8 °C 2.1 °C 1029 hPa WNW 1.6 km/h   67% 0 mm OVC
22:35 7.8 °C 2.2 °C 1029 hPa West 1.9 km/h 1.9 km/h 68% 0 mm OVC
22:41 7.8 °C 2.2 °C 1029 hPa WNW 3.7 km/h 3.7 km/h 68% 0 mm OVC
22:46 7.7 °C 2 °C 1029 hPa WNW 5.6 km/h 5.6 km/h 67% 0 mm OVC
22:51 7.8 °C 2.1 °C 1029 hPa West 3.7 km/h 3.7 km/h 67% 0 mm OVC
22:56 7.7 °C 2 °C 1029 hPa WNW 1.9 km/h   67% 0 mm OVC
23:06 7.7 °C 2 °C 1028.3 hPa SSW 1.9 km/h 1.9 km/h 67% 0 mm OVC
23:11 7.7 °C 2 °C 1028.3 hPa West 5.6 km/h 5.6 km/h 67% 0 mm OVC
23:16 7.7 °C 2 °C 1028.3 hPa West 1.6 km/h   67% 0 mm OVC
23:21 7.7 °C 2 °C 1028.3 hPa WNW 3.7 km/h 3.7 km/h 67% 0 mm OVC
23:26 7.7 °C 2 °C 1028.3 hPa West 5 km/h 5 km/h 67% 0 mm OVC
23:31 7.7 °C 1.9 °C 1028.3 hPa West 1.9 km/h   67% 0 mm OVC
23:35 7.7 °C 2 °C 1028.3 hPa WNW 1.9 km/h   67% 0 mm OVC
23:40 7.7 °C 2 °C 1028.3 hPa West 1.9 km/h   67% 0 mm OVC
23:45 7.7 °C 2 °C 1028.3 hPa West 1.9 km/h 1.9 km/h 67% 0 mm OVC
23:50 7.7 °C 1.9 °C 1028.3 hPa WNW 1.9 km/h 1.9 km/h 67% 0 mm OVC
23:55 7.7 °C 2.1 °C 1028.3 hPa West 3.7 km/h 3.7 km/h 68% 0 mm OVC
Piedmont Bend
Compliments of Weather Underground - 2 mb